Terminal Aerodrome Forecast
Issued by NWS Sioux Falls, SD

Home | Current Version | Previous Version | Graphics & Text | Print | Product List | Glossary Off
Versions: 1 2 3 4 5 6 7 8 9 10 11 12 13 14 15 16 17 18 19 20 21 22 23 24

330
FTUS43 KFSD 240425 AAB
TAFFSD
TAF AMD
KFSD 240425Z 2404/2424 03009KT P6SM VCSH BKN006
     FM240500 14009KT P6SM BKN006 WS020/18040KT
     FM241200 16009KT P6SM SCT030 BKN050
     FM241400 17009KT P6SM SCT050
     FM241800 20013KT P6SM VCSH BKN040=

USA.gov is the U.S. government's official web portal to all federal, state and local government web resources and services.